cliquez pour ajouter le site Runraid à vos favoris  English version (google)  Retour à l'accueil Ecrire à l'auteur du site Runraid : Michel Jourdan



Les prochaines courses


Les derniers résultats

cliquez pour visualiser la page complète relatant la chronologie des éruptions du Piton de la Fournaise
éruptions Piton de la Fournaise


Ile de La Réunion

 Diagonale des Fous 

Nouveautés du site

Ecrire au créateur du site : Michel Jourdan
Contact


2017-05-14 - Course du Géranium - Champ. Montagne Réunion 7 km

Pour consulter le palmarès d'un coureur, un clic sur son nom !

Vous avez des remarques, corrections, ... sur ces résultats , un clic sur --> pour me transmettre toute information concernant les classements


Course du Géranium - Champ. Montagne Réunion 7 km - 2017 : classement des 84 finishers
Place Nom Temps Cat. Club Sexe Clt/cat.
Place Nom Temps Cat. Club Sexe Clt/cat.
1 LEBON VINCENT 00:47:02 CAM M 1 CAM 513
2 RAMIN MAEL 00:49:40 CAM ACSAL M 2 CAM 62
3 SANTOS DA SILVA FLEUR 00:50:35 SEF DA F Champ. 2017 217
4 HOARAU Damien 00:52:01 JUM M 1 JUM 511
5 SERY BRUNO 00:52:30 CAM CAPP M 3 CAM 106
6 QUILLEVERE MARIE 00:52:43 SEF CAPOSS F 2eme F 162
7 BAILLIF TONY 00:52:51 CAM ACSP M 4 CAM 51
8 LESNE EWEN 00:53:22 JUM M 2 JUM 514
9 RECHICHOU JEAN DENIS 00:55:31 CAM M 5 CAM 568
10 PLANTE MARIE ANAIS 00:56:29 SEF RCSD F 3eme F 267
11 WINTERS VICTOR 00:56:50 CAM RCSD M 6 CAM 574
12 HOARAU CLARISSE 00:58:07 V1F DA F 4 F - 1 V1F 214
13 PERCHERON NATHALIE 00:58:33 V1F DA F 5 F - 2 V1F 216
14 LAUP SAMUEL 00:59:21 CAM CAPP M 7 CAM 103
15 SMITH JOHANNA 00:59:46 SEF CASL F 6 F - 4 SEF 177
16 CALPETARD MARIE SANDRINE 01:00:39 SEF DA F 7 F - 5 SEF 212
17 PADRE ROMAIN 01:01:17 CAM M 8 CAM 518
18 PERRIER LEFEVRE CORINNE 01:01:19 V2F OUESTRAIL F 8 F - 1 V2F 251
19 CASTAGNET TOM 01:01:48 JUM BNA M 3 JUM 95
20 VALLARD NATHAN 01:02:01 JUM M 4 JUM 551
21 PAYET ISABELLE THERESE 01:02:34 SEF CAPP F 9 F - 6 SEF 105
22 CADET ARMANDE 01:02:42 V3F DA F 10 F - 1 V3F 211
23 VIRASSAMY FLORE 01:04:04 V1F DA F 11 F - 3 V1F 218
24 JEANDEMANGE LAURE 01:05:03 SEF CASL F 12 F - 7 SEF 172
25 CAVANE MARIE CHRISTINE 01:05:06 V1F USPGA F 13 F - 4 V1F 274
26 WINTERS MAXENCE 01:05:14 CAM RCSD M 9 CAM 573
27 POUPART FLORE 01:06:03 SEF OUESTRAIL F 14 F - 8 SEF 252
28 MOAN STEPHANIE MARIE 01:06:03 V1F CASL F 15 F - 5 V1F 174
29 PIERY EKATERINA 01:07:07 V1F ACSP F 16 F - 6 V1F 56
30 DURAND ISABELLE 01:07:12 V1F BNA F 17 F - 7 V1F 86
31 FAUS LLOPIS CELIA 01:08:15 SEF DA F 18 F - 9 SEF 213
32 PONSOT MICKELLIGUE 01:08:24 V1F OUESTRAIL F 19 F - 8 V1F 566
33 LEOCADIE SAMUEL RUDY 01:08:53 CAM CAPP M 10 CAM 104
34 NIRLO FLORENCE 01:09:13 V1F BNA F 20 F - 9 V1F 92
35 QUEST MAGALI 01:09:21 V1F RCSD F 21 F - 10 V1F 268
36 MORILHAT MURIEL 01:12:06 V1F BNA F 22 F - 11 V1F 90
37 CAUSSAT FLORA 01:12:37 JUF AB F 23 F - 1 JUF 5
38 FONTAINE CHRISTIANE 01:13:05 V2F BNA F 24 F - 2 V2F 87
39 PAYET SABRINA 01:14:23 SEF CASL F 25 F - 10 SEF 175
40 JAVEGNY REINE CLAUDE 01:14:32 V1F BNA F 26 F - 12 V1F 89
41 DESVAUX VANESSA 01:15:02 SEF BNA F 27 F - 11 SEF 85
42 RIVIERE ELOISE MATHILDE 01:15:57 CAF CASL F 28 F - 1 CAF 176
43 NIRLO GABRIELLE 01:15:58 CAF BNA F 29 F - 2 CAF 93
44 LOUISE AMELIA 01:16:51 SEF CAPOSS F 30 F - 12 SEF 161
45 POTHIN ANGELIQUE 01:17:39 SEF F 31 F - 13 SEF 530
46 FOUQUE MESSALINE KESHY 01:18:19 ESF RCSD F 32 F - 1 ESF 266
47 BOULANGER FLORENCE 01:20:14 V1F CAPP F 33 F - 13 V1F 102
48 ROBERT ROSELYNE 01:21:16 V2F AC ENTENTE F 34 F - 3 V2F 22
49 MARIMA Chrystelle 01:21:16 SEF F 35 F - 14 SEF 515
50 KIANG FAT MARINA 01:21:24 SEF CAPOSS F 36 F - 15 SEF 159
51 MOUTOU MARIE GUYLAINE 01:22:24 V2F BNA F 37 F - 4 V2F 91
52 REVEL Aurelie 01:24:34 SEF F 38 F - 16 SEF 522
53 BIRON Camille 01:25:12 SEF F 39 F - 17 SEF 503
54 JOUANNOT MARIE 01:25:20 V3F DENIV F 40 F - 2 V3F 193
55 LI WENTING 01:26:11 SEF CAPOSS F 41 F - 18 SEF 160
56 JUVENAL VIVETTE 01:27:03 V2F F 42 F - 5 V2F 601
57 JAURES NELCIE 01:27:18 V1F AC ENTENTE F 43 F - 14 V1F 19
58 VIDOT MATHIDE 01:27:20 V2F F 44 F - 6 V2F 596
59 MOUTAMAN SEVAGAMY ANNIE CLAUDE 01:27:28 V1F F 45 F - 15 V1F 561
60 REMPHAN CHRISTELLE 01:28:00 V1F AB F 46 F - 16 V1F 592
61 RAMALINGOM RAMASSAMY KARINA 01:29:12 SEF BNA F 47 F - 19 SEF 94
62 GUBLIN INGRID 01:30:22 V1F BNA F 48 F - 17 V1F 88
63 GREIL ALICIA 01:30:39 SEF F 49 F - 20 SEF 541
64 LANGE VALERIE 01:30:43 V2F F 50 F - 7 V2F 512
65 VELETCHY Amina 01:32:29 SEF F 51 F - 21 SEF 534
66 THEMYR ROMY 01:33:32 SEF F 52 F - 22 SEF 581
67 VIENNE Stephanie 01:33:33 SEF F 53 F - 23 SEF 536
68 LOUISE MARIE ANDREE 01:35:43 SEF ACSP F 54 F - 24 SEF 552
69 HAZEBROUCK MARIE PIERRE 01:35:46 V1F ACSP F 55 F - 18 V1F 54
70 JACQUEMART MANON 01:36:41 SEF CAPOSS F 56 F - 25 SEF 612
71 MARIMA LYNE 01:36:52 V2F AC ENTENTE F 57 F - 8 V2F 20
72 CADINOT CARINE 01:37:04 V1F F 58 F - 19 V1F 505
73 SILBERSTEIN VIRGINIE 01:41:33 SEF F 59 F - 26 SEF 532
74 MICHEL MARIE ROSE 01:41:58 V3F F 60 F - 3 V3F 517
75 LEONG KAM PO HELENE 01:43:14 SEF F 61 F - 27 SEF 569
76 VILLARS KARINE 01:46:22 SEF CAPOSS F 62 F - 28 SEF 163
77 VERBAR jessie 01:58:52 SEF F 63 F - 29 SEF 535
78 DAMOUR gabrielle 01:59:31 V2F F 64 F - 9 V2F 507
79 DIJOUX Marie Sabienne 02:11:19 V1F F 65 F - 20 V1F 509
80 SIBY Marie Roselyne 02:15:39 V1F F 66 F - 21 V1F 523
81 DANY sergine 02:28:03 V1F F 67 F - 22 V1F 508
82 COURDAL YASMINA 02:29:57 V1F BNA F 68 F - 23 V1F 84
83 FOURNIER LAETITIA 02:36:49 SEF ACSP F 69 F - 30 SEF 53
84 MUNSTUN SABINE 02:41:18 V1F ACSP F 70 F - 24 V1F 55


ReferencementCe site est listé dans la catégorie Sport : Sports extrêmes Dictionnaire
| Accueil | La Réunion  Vue du ciel | Météo | Cyclones | Volcan | Cirques de Mafate , Cilaos , Salazie | Photos Randonnées | Randonnées Réunion: Randos Espiègle , Courses montagne | Diagonale des Fous |  Marathon des Sables | Voyages Les stats du site | Fonds écran | Plan du site | Blog de runraid | Galerie photos Sport Réunion |